Time;durP1;ratioP1;P1;durP2;ratioP2;P2;SDS_P1;SDS_P2;PMS_P1;PMS_P2;Temp;Humidity;BMP_temperature;BMP_pressure;BME280_temperature;BME280_humidity;BME280_pressure;Samples;Min_cycle;Max_cycle;Signal;HPM_P1;HPM_P2
2023/02/26 00:00:35;;;;;;;12.90;3.30;;;;;;;2.81;57.21;95479.25;5026083;28;20199;-71
2023/02/26 00:03:01;;;;;;;3.60;2.20;;;;;;;2.79;56.96;95475.88;5032955;28;20606;-72
2023/02/26 00:05:26;;;;;;;3.10;2.73;;;;;;;2.74;56.89;95478.59;5031950;28;20179;-72
2023/02/26 00:07:52;;;;;;;2.77;2.33;;;;;;;2.42;57.71;95482.06;5026399;28;20958;-72
2023/02/26 00:10:18;;;;;;;4.00;2.60;;;;;;;2.60;57.26;95483.28;5031327;28;20176;-72
2023/02/26 00:12:44;;;;;;;3.00;2.30;;;;;;;2.48;57.33;95487.06;5035662;28;20189;-72
2023/02/26 00:15:16;;;;;;;2.40;2.20;;;;;;;2.05;57.81;95488.19;5028986;28;20537;-70
2023/02/26 00:17:48;;;;;;;2.63;2.10;;;;;;;2.09;58.02;95490.66;5023801;28;20465;-72
2023/02/26 00:20:16;;;;;;;2.40;2.20;;;;;;;2.20;56.85;95498.19;5023379;28;20431;-72
2023/02/26 00:22:43;;;;;;;3.40;2.30;;;;;;;2.05;56.05;95494.22;5023598;28;20443;-72
2023/02/26 00:25:09;;;;;;;3.93;2.10;;;;;;;1.68;56.67;95494.28;5028667;28;20431;-72
2023/02/26 00:27:35;;;;;;;2.33;2.13;;;;;;;1.54;56.53;95497.19;5026114;28;20536;-70
2023/02/26 00:30:06;;;;;;;2.30;1.73;;;;;;;1.60;57.13;95494.44;5026881;28;20438;-72
2023/02/26 00:32:33;;;;;;;2.20;1.97;;;;;;;1.39;57.28;95500.13;5028623;28;20441;-71
2023/02/26 00:34:59;;;;;;;2.20;2.00;;;;;;;1.51;57.56;95505.00;5028382;28;20430;-70
2023/02/26 00:37:36;;;;;;;3.93;2.23;;;;;;;1.27;57.05;95502.09;5025280;28;20441;-72
2023/02/26 00:40:27;;;;;;;2.10;1.90;;;;;;;1.20;57.12;95503.09;5029673;28;20175;-73
2023/02/26 00:42:52;;;;;;;1.90;1.80;;;;;;;1.18;57.91;95515.22;5025779;28;20445;-72
2023/02/26 00:45:18;;;;;;;2.60;2.40;;;;;;;1.24;57.92;95522.00;5030390;28;20443;-72
2023/02/26 00:48:03;;;;;;;1.97;1.77;;;;;;;1.42;57.49;95523.34;5025411;28;20179;-72
2023/02/26 00:50:29;;;;;;;3.00;1.80;;;;;;;1.47;56.41;95522.34;5024320;28;20556;-72
2023/02/26 00:53:08;;;;;;;3.50;2.03;;;;;;;1.80;55.98;95531.94;5029151;28;21023;-71
2023/02/26 00:55:34;;;;;;;3.50;1.60;;;;;;;2.01;55.26;95525.38;5032132;28;20466;-71
2023/02/26 00:57:59;;;;;;;4.77;1.53;;;;;;;1.31;56.71;95528.72;5030342;28;20437;-72
2023/02/26 01:00:25;;;;;;;2.90;1.90;;;;;;;1.47;57.27;95526.66;5026399;28;20203;-71
2023/02/26 01:02:51;;;;;;;3.20;2.43;;;;;;;1.41;57.15;95526.78;5033327;28;20198;-71
2023/02/26 01:05:17;;;;;;;3.40;2.17;;;;;;;1.54;56.05;95523.06;5034319;28;20661;-72
2023/02/26 01:08:05;;;;;;;4.63;2.27;;;;;;;1.91;55.58;95527.34;5025529;28;20191;-72
2023/02/26 01:10:31;;;;;;;4.50;2.17;;;;;;;1.77;55.25;95525.13;5032404;28;20465;-71
2023/02/26 01:12:57;;;;;;;2.03;1.70;;;;;;;1.49;56.79;95535.25;5026565;28;20434;-71
2023/02/26 01:15:23;;;;;;;3.37;1.87;;;;;;;1.11;58.53;95533.47;5033002;28;20441;-72
2023/02/26 01:18:17;;;;;;;2.83;2.00;;;;;;;1.62;56.83;95525.47;5028093;28;20596;-71
2023/02/26 01:20:49;;;;;;;7.40;2.17;;;;;;;1.78;55.90;95529.38;5030773;28;21293;-71
2023/02/26 01:23:20;;;;;;;4.03;2.30;;;;;;;1.82;55.81;95535.31;5028034;28;20434;-71
2023/02/26 01:26:02;;;;;;;4.33;3.93;;;;;;;2.18;54.96;95532.75;5025105;28;20528;-71
2023/02/26 01:28:28;;;;;;;3.67;2.10;;;;;;;1.63;55.60;95534.91;5028328;28;20426;-71
2023/02/26 01:31:01;;;;;;;4.60;2.07;;;;;;;1.73;55.99;95523.47;5032107;28;20493;-71
2023/02/26 01:33:29;;;;;;;3.00;2.23;;;;;;;1.25;57.57;95532.31;5024956;28;20987;-71
2023/02/26 01:36:06;;;;;;;2.10;1.67;;;;;;;1.50;56.69;95526.59;5030154;28;20451;-71
2023/02/26 01:38:42;;;;;;;4.03;2.43;;;;;;;1.76;55.76;95527.72;5027045;28;20529;-72
2023/02/26 01:41:23;;;;;;;2.53;2.33;;;;;;;1.86;55.83;95527.44;5024418;28;20568;-73
2023/02/26 01:44:10;;;;;;;3.70;2.10;;;;;;;2.00;55.53;95527.13;5028043;28;20528;-70
2023/02/26 01:47:13;;;;;;;3.87;1.90;;;;;;;1.93;54.88;95525.56;5023220;28;20438;-71
2023/02/26 01:49:39;;;;;;;6.00;2.30;;;;;;;1.85;55.73;95528.34;5027198;28;20434;-71
2023/02/26 01:52:25;;;;;;;5.50;2.30;;;;;;;1.94;55.64;95532.47;5021292;28;20508;-70
2023/02/26 01:54:52;;;;;;;2.50;2.30;;;;;;;2.03;55.69;95523.59;5024591;28;20446;-70
2023/02/26 01:57:20;;;;;;;4.53;2.03;;;;;;;1.65;56.48;95527.97;5026684;28;20508;-70
2023/02/26 01:59:51;;;;;;;1.90;1.80;;;;;;;1.95;56.27;95528.97;5026373;28;20529;-70
2023/02/26 02:02:22;;;;;;;2.30;1.73;;;;;;;1.76;56.48;95528.56;5031561;28;20457;-71
2023/02/26 02:04:48;;;;;;;6.03;2.47;;;;;;;2.01;55.60;95522.78;5035142;28;20464;-71
2023/02/26 02:07:15;;;;;;;3.80;2.43;;;;;;;1.90;56.04;95536.84;5024651;28;20441;-72
2023/02/26 02:09:41;;;;;;;3.20;2.90;;;;;;;1.80;56.13;95526.78;5030677;28;20445;-71
2023/02/26 02:12:23;;;;;;;6.60;2.10;;;;;;;1.79;56.53;95518.13;5028613;28;21260;-71
2023/02/26 02:15:06;;;;;;;2.70;2.13;;;;;;;1.98;56.36;95522.88;5030667;28;20426;-71
2023/02/26 02:17:51;;;;;;;6.73;2.70;;;;;;;1.90;57.24;95529.09;5023276;28;20466;-72
2023/02/26 02:20:54;;;;;;;3.00;2.67;;;;;;;1.94;57.41;95531.59;5024732;28;20433;-72
2023/02/26 02:23:24;;;;;;;3.07;2.20;;;;;;;1.58;57.93;95529.00;5022776;28;20426;-69
2023/02/26 02:26:01;;;;;;;2.60;2.10;;;;;;;1.55;58.21;95529.06;5023652;28;20775;-72
2023/02/26 02:28:39;;;;;;;6.57;2.57;;;;;;;1.63;58.80;95533.19;5025751;28;21585;-72
2023/02/26 02:31:14;;;;;;;4.73;2.80;;;;;;;1.89;58.47;95539.47;5023446;28;20449;-71
2023/02/26 02:33:46;;;;;;;16.17;3.73;;;;;;;2.04;57.83;95527.91;5023238;28;20469;-71
2023/02/26 02:36:27;;;;;;;2.73;2.53;;;;;;;2.09;57.81;95536.41;5020646;28;20671;-71
2023/02/26 02:39:10;;;;;;;2.43;2.23;;;;;;;1.74;57.56;95540.69;5019187;28;20445;-70
2023/02/26 02:41:46;;;;;;;3.33;2.60;;;;;;;1.95;57.55;95541.06;5024911;28;21845;-71
2023/02/26 02:44:16;;;;;;;4.57;2.83;;;;;;;1.78;57.77;95539.72;5024305;28;20500;-71
2023/02/26 02:46:45;;;;;;;3.50;2.40;;;;;;;1.81;56.86;95542.25;5025407;28;20448;-72
2023/02/26 02:49:20;;;;;;;2.40;2.20;;;;;;;1.43;56.84;95548.28;5032866;28;20426;-70
2023/02/26 02:51:49;;;;;;;2.23;2.03;;;;;;;1.28;57.36;95552.06;5022691;28;20467;-70
2023/02/26 02:54:21;;;;;;;5.80;2.80;;;;;;;1.54;56.24;95548.06;5030141;28;20537;-72
2023/02/26 02:57:03;;;;;;;3.60;2.70;;;;;;;1.55;56.27;95545.44;5027614;28;20475;-70
2023/02/26 02:59:33;;;;;;;3.10;2.50;;;;;;;1.52;56.79;95547.25;5028362;28;20442;-70
2023/02/26 03:02:07;;;;;;;6.73;2.37;;;;;;;1.33;56.69;95551.97;5027727;28;20902;-71
2023/02/26 03:04:33;;;;;;;2.60;2.40;;;;;;;1.46;55.83;95548.22;5025839;28;20450;-71
2023/02/26 03:06:59;;;;;;;2.80;2.43;;;;;;;1.47;56.02;95552.50;5027344;28;20436;-70
2023/02/26 03:09:24;;;;;;;3.83;2.47;;;;;;;1.30;56.61;95555.47;5020491;28;20438;-71
2023/02/26 03:11:50;;;;;;;5.00;2.70;;;;;;;1.29;56.73;95553.75;5026803;28;20203;-70
2023/02/26 03:14:17;;;;;;;5.97;2.63;;;;;;;1.27;56.90;95556.34;5030515;28;20191;-71
2023/02/26 03:17:03;;;;;;;15.00;2.73;;;;;;;1.32;56.52;95560.59;5026690;28;20297;-72
2023/02/26 03:19:53;;;;;;;2.93;2.10;;;;;;;1.10;56.48;95573.13;5024099;28;20512;-70
2023/02/26 03:22:33;;;;;;;2.77;2.57;;;;;;;1.00;55.95;95578.47;5025913;28;20508;-70
2023/02/26 03:25:11;;;;;;;6.33;2.33;;;;;;;1.09;55.84;95581.72;5029609;28;20441;-72
2023/02/26 03:27:57;;;;;;;3.67;2.50;;;;;;;0.97;56.36;95577.66;5025410;28;20434;-71
2023/02/26 03:30:48;;;;;;;3.03;2.10;;;;;;;0.97;56.13;95581.13;5029398;28;20600;-71
2023/02/26 03:33:20;;;;;;;3.30;2.20;;;;;;;0.87;56.78;95576.13;5026443;28;20437;-72
2023/02/26 03:35:59;;;;;;;3.70;2.23;;;;;;;0.91;56.46;95594.13;5030184;28;20934;-71
2023/02/26 03:38:30;;;;;;;5.63;2.80;;;;;;;0.89;56.36;95592.47;5024972;28;20438;-70
2023/02/26 03:41:05;;;;;;;4.17;2.70;;;;;;;0.61;56.67;95595.53;5025722;28;20460;-71
2023/02/26 03:43:45;;;;;;;2.67;1.97;;;;;;;0.70;56.50;95605.72;5025706;28;20520;-71
2023/02/26 03:46:17;;;;;;;2.80;2.30;;;;;;;0.77;56.16;95602.13;5028260;28;20445;-71
2023/02/26 03:48:44;;;;;;;3.00;2.23;;;;;;;0.68;55.18;95607.47;5022872;28;21049;-71
2023/02/26 03:51:13;;;;;;;3.93;3.07;;;;;;;0.53;56.23;95606.03;5025891;28;20488;-71
2023/02/26 03:54:03;;;;;;;2.83;2.00;;;;;;;0.52;56.58;95609.50;5028393;28;20434;-71
2023/02/26 03:56:38;;;;;;;3.67;2.60;;;;;;;0.80;56.16;95612.44;5030917;28;21047;-71
2023/02/26 03:59:04;;;;;;;3.50;2.30;;;;;;;0.65;56.18;95612.69;5031991;28;20516;-71
2023/02/26 04:01:52;;;;;;;3.63;2.73;;;;;;;0.86;54.69;95626.94;5025641;28;20473;-71
2023/02/26 04:04:31;;;;;;;4.87;2.20;;;;;;;0.95;54.69;95631.09;5023223;28;20195;-72
2023/02/26 04:06:57;;;;;;;10.40;4.57;;;;;;;0.80;54.55;95632.22;5024453;28;20539;-70
2023/02/26 04:09:23;;;;;;;13.30;3.17;;;;;;;0.84;55.22;95639.03;5031318;28;20462;-70
2023/02/26 04:11:50;;;;;;;4.47;3.23;;;;;;;0.86;54.76;95639.88;5033027;28;20203;-69
2023/02/26 04:14:16;;;;;;;2.33;2.13;;;;;;;0.82;54.34;95630.47;5032305;28;20533;-69
2023/02/26 04:16:43;;;;;;;3.73;2.70;;;;;;;0.78;54.98;95639.13;5026529;28;21158;-70
2023/02/26 04:19:09;;;;;;;4.57;2.33;;;;;;;0.73;54.32;95644.41;5028576;28;20222;-70
2023/02/26 04:21:34;;;;;;;2.67;2.37;;;;;;;0.68;54.53;95646.19;5034101;28;20486;-70
2023/02/26 04:24:00;;;;;;;2.70;2.30;;;;;;;0.69;55.23;95640.19;5026511;28;20183;-71
2023/02/26 04:26:25;;;;;;;4.43;2.40;;;;;;;0.60;55.61;95640.34;5032917;28;20176;-71
2023/02/26 04:28:50;;;;;;;2.30;1.97;;;;;;;0.65;54.79;95648.00;5029294;28;22133;-71
2023/02/26 04:31:16;;;;;;;14.60;3.10;;;;;;;0.76;54.90;95656.41;5031801;28;20846;-71
2023/02/26 04:33:42;;;;;;;3.17;1.87;;;;;;;0.47;55.84;95659.47;5038759;28;20207;-71
2023/02/26 04:36:07;;;;;;;3.80;2.67;;;;;;;0.62;55.19;95649.75;5038253;28;20227;-71
2023/02/26 04:38:33;;;;;;;3.37;2.20;;;;;;;0.69;55.20;95649.66;5038952;28;20187;-70
2023/02/26 04:40:59;;;;;;;3.73;2.10;;;;;;;0.65;55.34;95654.00;5034293;28;20232;-70
2023/02/26 04:43:24;;;;;;;2.67;2.43;;;;;;;0.58;55.60;95653.25;5025855;28;20219;-70
2023/02/26 04:45:49;;;;;;;3.67;2.43;;;;;;;0.40;55.91;95661.28;5032626;28;20665;-71
2023/02/26 04:48:16;;;;;;;3.63;2.23;;;;;;;0.52;56.28;95649.91;5031506;28;20271;-71
2023/02/26 04:50:41;;;;;;;2.47;2.27;;;;;;;0.51;55.79;95650.81;5030506;28;20202;-71
2023/02/26 04:53:07;;;;;;;3.50;2.40;;;;;;;0.47;55.84;95650.00;5032849;28;20452;-71
2023/02/26 04:55:34;;;;;;;2.40;2.20;;;;;;;0.03;56.88;95661.88;5031315;28;20183;-71
2023/02/26 04:57:59;;;;;;;3.63;2.10;;;;;;;0.35;56.02;95652.78;5028668;28;20237;-71
2023/02/26 05:00:25;;;;;;;3.40;2.23;;;;;;;0.38;55.55;95658.75;5027110;28;20480;-71
2023/02/26 05:02:51;;;;;;;3.87;2.47;;;;;;;0.58;54.46;95661.00;5024737;28;20194;-71
2023/02/26 05:05:16;;;;;;;2.93;2.27;;;;;;;0.50;55.24;95660.28;5031051;28;20192;-71
2023/02/26 05:07:42;;;;;;;5.27;2.70;;;;;;;0.70;54.93;95666.84;5031292;28;20645;-71
2023/02/26 05:10:08;;;;;;;1.87;1.67;;;;;;;0.49;56.06;95668.91;5026815;28;20663;-71
2023/02/26 05:12:33;;;;;;;2.87;2.50;;;;;;;0.38;55.66;95668.25;5028827;28;20218;-71
2023/02/26 05:14:59;;;;;;;2.13;1.93;;;;;;;0.29;56.00;95679.56;5031443;28;20537;-71
2023/02/26 05:17:24;;;;;;;4.47;1.80;;;;;;;0.53;54.97;95683.47;5025517;28;20207;-71
2023/02/26 05:19:50;;;;;;;3.43;2.33;;;;;;;0.29;55.28;95671.81;5028190;28;20230;-71
2023/02/26 05:22:16;;;;;;;3.67;1.90;;;;;;;0.31;55.82;95684.69;5024945;28;20241;-71
2023/02/26 05:24:42;;;;;;;4.10;2.23;;;;;;;0.28;55.46;95683.00;5028847;28;20711;-71
2023/02/26 05:27:08;;;;;;;3.90;1.80;;;;;;;0.22;54.85;95684.84;5036656;28;20178;-71
2023/02/26 05:29:34;;;;;;;2.50;1.80;;;;;;;0.17;54.62;95687.47;5031786;28;20496;-71
2023/02/26 05:31:59;;;;;;;3.10;1.63;;;;;;;0.31;64.58;95695.03;5029636;28;20486;-70
2023/02/26 05:34:25;;;;;;;2.50;2.00;;;;;;;0.24;54.22;95691.69;5024394;28;20176;-70
2023/02/26 05:36:50;;;;;;;4.10;1.43;;;;;;;0.10;53.64;95691.88;5031301;28;20202;-70
2023/02/26 05:39:16;;;;;;;1.90;1.60;;;;;;;0.16;53.74;95698.66;5024122;28;20186;-72
2023/02/26 05:41:41;;;;;;;3.30;1.87;;;;;;;-0.09;54.49;95696.44;5027622;28;20208;-72
2023/02/26 05:44:07;;;;;;;3.90;2.20;;;;;;;0.14;54.54;95702.97;5024079;28;20733;-70
2023/02/26 05:46:33;;;;;;;3.30;1.37;;;;;;;0.18;54.31;95707.22;5033482;28;20179;-71
2023/02/26 05:48:59;;;;;;;7.40;2.37;;;;;;;0.19;54.24;95706.38;5024197;28;20438;-71
2023/02/26 05:51:24;;;;;;;5.57;2.13;;;;;;;0.02;54.61;95714.31;5028534;28;20203;-71
2023/02/26 05:53:50;;;;;;;4.33;2.00;;;;;;;0.09;54.15;95717.69;5034713;28;20563;-71
2023/02/26 05:56:15;;;;;;;4.03;1.60;;;;;;;-0.08;54.69;95712.75;5024838;28;20214;-69
2023/02/26 05:58:40;;;;;;;6.23;1.80;;;;;;;0.10;53.86;95709.09;5023599;28;20242;-71
2023/02/26 06:01:06;;;;;;;3.33;1.70;;;;;;;0.25;53.48;95715.75;5031627;28;20199;-71
2023/02/26 06:03:31;;;;;;;2.43;1.60;;;;;;;0.12;53.90;95720.22;5026716;28;20183;-71
2023/02/26 06:05:57;;;;;;;5.83;2.80;;;;;;;-0.23;55.09;95717.25;5027552;28;20211;-70
2023/02/26 06:08:22;;;;;;;4.80;1.70;;;;;;;-0.22;54.96;95726.69;5028479;28;20183;-70
2023/02/26 06:10:50;;;;;;;5.73;2.03;;;;;;;0.15;54.40;95730.50;5028100;28;20215;-70
2023/02/26 06:13:15;;;;;;;3.63;1.50;;;;;;;-0.03;54.16;95736.75;5025396;28;20190;-70
2023/02/26 06:15:41;;;;;;;4.43;2.47;;;;;;;0.06;54.89;95734.06;5023925;28;20768;-70
2023/02/26 06:18:07;;;;;;;4.00;2.17;;;;;;;0.32;53.27;95733.69;5026740;28;20211;-70
2023/02/26 06:20:33;;;;;;;3.40;1.70;;;;;;;0.57;52.85;95731.59;5023356;28;20203;-71
2023/02/26 06:22:58;;;;;;;2.23;1.40;;;;;;;0.93;50.75;95729.28;5023658;28;20452;-71
2023/02/26 06:25:23;;;;;;;2.80;1.60;;;;;;;1.48;50.33;95732.59;5027684;28;20189;-70
2023/02/26 06:27:49;;;;;;;1.80;1.40;;;;;;;1.23;50.71;95739.97;5023670;28;20238;-70
2023/02/26 06:30:14;;;;;;;4.37;1.47;;;;;;;1.33;49.98;95730.31;5028813;28;20221;-71
2023/02/26 06:32:40;;;;;;;1.50;1.20;;;;;;;1.54;49.72;95737.66;5031518;28;20247;-69
2023/02/26 06:35:06;;;;;;;3.80;1.47;;;;;;;1.26;50.74;95735.59;5026523;28;20882;-70
2023/02/26 06:37:31;;;;;;;1.87;1.37;;;;;;;0.82;50.81;95744.94;5024797;28;20249;-69
2023/02/26 06:39:57;;;;;;;2.27;1.50;;;;;;;1.21;50.39;95741.72;5030814;28;20445;-70
2023/02/26 06:42:22;;;;;;;4.43;2.33;;;;;;;2.33;47.72;95731.69;5024253;28;20671;-70
2023/02/26 06:44:48;;;;;;;8.47;1.67;;;;;;;3.67;44.55;95741.34;5023427;28;20679;-69
2023/02/26 06:47:13;;;;;;;1.87;1.40;;;;;;;4.43;41.66;95740.88;5027258;28;20193;-70
2023/02/26 06:49:39;;;;;;;21.63;3.63;;;;;;;5.30;39.76;95739.84;5022695;28;20237;-70
2023/02/26 06:52:04;;;;;;;37.73;6.90;;;;;;;6.11;38.21;95726.56;5023353;28;20572;-71
2023/02/26 06:54:29;;;;;;;10.67;2.30;;;;;;;6.42;37.45;95734.97;5025723;28;20587;-70
2023/02/26 06:56:57;;;;;;;10.33;2.17;;;;;;;6.71;36.80;95736.47;5022285;28;20222;-71
2023/02/26 06:59:23;;;;;;;23.03;3.30;;;;;;;7.15;35.59;95736.44;5022855;28;21804;-70
2023/02/26 07:01:49;;;;;;;6.27;2.40;;;;;;;7.16;35.49;95733.78;5024672;28;20450;-71
2023/02/26 07:04:15;;;;;;;8.30;1.87;;;;;;;7.29;35.36;95746.31;5027635;28;20434;-71
2023/02/26 07:06:40;;;;;;;1.90;1.33;;;;;;;7.15;35.36;95736.44;5030203;28;20179;-71
2023/02/26 07:09:06;;;;;;;3.73;1.90;;;;;;;6.57;36.50;95748.28;5022990;28;20238;-70
2023/02/26 07:11:31;;;;;;;2.73;1.90;;;;;;;6.34;37.06;95756.97;5023336;28;20382;-71
2023/02/26 07:13:57;;;;;;;4.00;1.80;;;;;;;6.98;35.91;95750.16;5026873;28;20206;-70
2023/02/26 07:16:22;;;;;;;2.90;1.67;;;;;;;7.64;34.34;95756.13;5023374;28;20207;-70
2023/02/26 07:18:48;;;;;;;3.03;1.63;;;;;;;8.78;32.72;95747.59;5022845;28;20257;-72
2023/02/26 07:21:13;;;;;;;4.13;1.90;;;;;;;9.06;32.66;95749.72;5026373;28;20278;-70
2023/02/26 07:23:39;;;;;;;3.30;1.63;;;;;;;9.22;31.22;95747.22;5033732;28;20179;-70
2023/02/26 07:26:04;;;;;;;3.80;1.40;;;;;;;9.62;30.58;95753.09;5027315;28;20190;-70
2023/02/26 07:28:30;;;;;;;3.03;1.73;;;;;;;10.00;30.66;95755.53;5030127;28;20241;-71
2023/02/26 07:30:56;;;;;;;3.30;1.40;;;;;;;11.01;28.92;95756.22;5028451;28;20967;-70
2023/02/26 07:33:22;;;;;;;2.13;1.40;;;;;;;10.58;28.33;95760.31;5026137;28;20714;-70
2023/02/26 07:35:48;;;;;;;1.87;1.30;;;;;;;10.36;30.15;95765.88;5032599;28;20437;-69
2023/02/26 07:38:14;;;;;;;6.57;1.80;;;;;;;10.94;28.79;95762.72;5030209;28;20896;-70
2023/02/26 07:40:39;;;;;;;2.30;1.60;;;;;;;11.46;27.60;95761.56;5026657;28;20199;-70
2023/02/26 07:43:05;;;;;;;3.47;2.00;;;;;;;11.32;27.92;95762.34;5030444;28;20608;-69
2023/02/26 07:45:30;;;;;;;2.93;1.57;;;;;;;11.36;27.51;95765.63;5025214;28;20195;-71
2023/02/26 07:47:56;;;;;;;2.70;1.80;;;;;;;9.95;28.45;95777.59;5032965;28;20218;-70
2023/02/26 07:50:23;;;;;;;7.80;1.87;;;;;;;10.02;30.03;95780.75;5035009;28;20187;-70
2023/02/26 07:52:52;;;;;;;8.07;2.57;;;;;;;11.37;27.75;95775.22;5026195;28;20258;-71
2023/02/26 07:55:18;;;;;;;3.30;1.50;;;;;;;10.17;28.23;95782.56;5032137;28;20464;-71
2023/02/26 07:57:44;;;;;;;8.17;2.73;;;;;;;7.74;32.97;95797.50;5024803;28;20523;-70
2023/02/26 08:00:10;;;;;;;4.70;2.57;;;;;;;7.32;34.38;95796.63;5029730;28;20433;-71
2023/02/26 08:02:35;;;;;;;7.80;2.33;;;;;;;6.86;35.79;95802.81;5031848;28;20186;-71
2023/02/26 08:05:01;;;;;;;2.40;1.80;;;;;;;7.37;35.13;95799.03;5029288;28;20909;-71
2023/02/26 08:07:27;;;;;;;6.63;2.13;;;;;;;5.14;39.87;95812.31;5030252;28;20630;-71
2023/02/26 08:09:52;;;;;;;3.17;2.33;;;;;;;4.41;39.58;95816.25;5032284;28;20269;-70
2023/02/26 08:12:17;;;;;;;32.73;5.73;;;;;;;3.33;43.83;95820.91;5030723;28;20222;-70
2023/02/26 08:14:43;;;;;;;5.90;1.90;;;;;;;5.18;40.21;95806.13;5034540;28;20171;-71
2023/02/26 08:17:10;;;;;;;4.93;1.80;;;;;;;5.15;39.86;95805.34;5029092;28;20685;-71
2023/02/26 08:19:36;;;;;;;4.60;3.10;;;;;;;4.00;43.23;95822.63;5030296;28;20637;-71
2023/02/26 08:22:02;;;;;;;18.73;3.93;;;;;;;4.22;42.57;95821.13;5032858;28;20459;-71
2023/02/26 08:24:27;;;;;;;3.40;2.40;;;;;;;4.85;41.68;95813.22;5031984;28;20900;-70
2023/02/26 08:26:53;;;;;;;4.73;3.70;;;;;;;4.62;40.87;95824.31;5028179;28;20520;-73
2023/02/26 08:29:19;;;;;;;2.93;2.27;;;;;;;3.91;42.39;95834.09;5025572;28;20205;-70
2023/02/26 08:31:44;;;;;;;3.57;2.27;;;;;;;3.30;44.23;95843.47;5029435;28;20436;-70
2023/02/26 08:34:10;;;;;;;2.67;2.47;;;;;;;3.77;43.91;95838.81;5026723;28;20438;-70
2023/02/26 08:36:35;;;;;;;3.57;2.13;;;;;;;4.83;42.01;95831.47;5028795;28;20207;-71
2023/02/26 08:39:02;;;;;;;3.10;2.90;;;;;;;2.47;45.98;95847.94;5027763;28;20216;-71
2023/02/26 08:41:29;;;;;;;2.90;1.90;;;;;;;1.46;49.45;95856.75;5029321;28;20631;-71
2023/02/26 08:43:55;;;;;;;2.40;2.17;;;;;;;1.14;50.41;95857.28;5027379;28;20791;-71
2023/02/26 08:46:21;;;;;;;7.03;2.10;;;;;;;1.42;50.17;95860.25;5029943;28;20529;-71
2023/02/26 08:48:47;;;;;;;4.03;2.90;;;;;;;1.64;49.44;95859.88;5028514;28;20179;-71
2023/02/26 08:51:12;;;;;;;2.47;2.20;;;;;;;1.18;51.36;95877.03;5027754;28;20977;-72
2023/02/26 08:53:39;;;;;;;8.90;2.63;;;;;;;3.44;58.40;95869.91;5030177;28;20473;-70
2023/02/26 08:56:05;;;;;;;15.43;4.37;;;;;;;2.67;47.95;95874.28;5028453;28;20271;-70
2023/02/26 08:58:30;;;;;;;8.20;2.80;;;;;;;2.31;47.49;95881.88;5030829;28;20520;-69
2023/02/26 09:00:56;;;;;;;6.67;2.30;;;;;;;2.09;48.98;95885.78;5028404;28;20211;-69
2023/02/26 09:03:21;;;;;;;3.80;2.00;;;;;;;1.19;51.26;95895.97;5027647;28;20188;-70
2023/02/26 09:05:47;;;;;;;2.17;1.87;;;;;;;0.89;51.65;95899.84;5025977;28;20189;-68
2023/02/26 09:08:14;;;;;;;3.90;2.00;;;;;;;1.51;50.80;95892.84;5028465;28;20660;-70
2023/02/26 09:10:40;;;;;;;8.57;4.40;;;;;;;2.84;47.84;95876.50;5028530;28;20198;-68
2023/02/26 09:13:06;;;;;;;5.80;1.90;;;;;;;3.31;45.71;95879.75;5028343;28;20429;-68
2023/02/26 09:15:31;;;;;;;2.00;1.77;;;;;;;3.10;46.42;95875.91;5028624;28;20245;-67
2023/02/26 09:17:57;;;;;;;5.50;2.20;;;;;;;3.68;44.98;95867.59;5027022;28;20616;-68
2023/02/26 09:20:22;;;;;;;4.07;1.80;;;;;;;3.32;45.46;95862.44;5028532;28;20183;-68
2023/02/26 09:22:48;;;;;;;2.27;1.70;;;;;;;2.86;46.81;95876.44;5032846;28;20182;-69
2023/02/26 09:25:14;;;;;;;2.83;1.80;;;;;;;2.58;48.16;95883.97;5024658;28;20175;-68
2023/02/26 09:27:40;;;;;;;2.43;1.70;;;;;;;2.11;50.04;95884.88;5027331;28;20502;-69
2023/02/26 09:30:06;;;;;;;1.97;1.87;;;;;;;2.45;49.55;95886.78;5024856;28;20426;-69
2023/02/26 09:32:32;;;;;;;2.10;1.90;;;;;;;2.74;48.45;95873.25;5027250;28;20178;-68
2023/02/26 09:34:57;;;;;;;2.13;1.90;;;;;;;2.83;47.75;95876.50;5027831;28;21211;-69
2023/02/26 09:37:23;;;;;;;2.00;1.90;;;;;;;1.54;50.69;95894.56;5026412;28;20229;-68
2023/02/26 09:39:48;;;;;;;2.47;2.17;;;;;;;0.35;53.94;95885.91;5026652;28;20712;-68
2023/02/26 09:43:02;;;;;;;5.63;2.30;;;;;;;0.84;54.16;95900.75;5026684;28;20191;-68
2023/02/26 09:45:35;;;;;;;2.40;2.20;;;;;;;1.35;52.51;95900.03;5024109;28;20206;-69
2023/02/26 09:48:04;;;;;;;6.60;2.17;;;;;;;1.76;51.34;95893.28;5026495;28;20414;-68
2023/02/26 09:50:44;;;;;;;2.63;2.43;;;;;;;2.05;50.93;95895.34;5023803;28;20462;-68
2023/02/26 09:53:34;;;;;;;2.60;1.83;;;;;;;2.78;48.70;95892.16;5023185;28;20422;-69
2023/02/26 09:56:22;;;;;;;2.53;2.30;;;;;;;1.70;51.69;95906.31;5022741;28;20446;-68
2023/02/26 09:58:51;;;;;;;2.37;2.10;;;;;;;1.12;54.47;95908.13;5025386;28;20440;-67
2023/02/26 10:01:42;;;;;;;2.77;2.57;;;;;;;1.01;54.72;95915.16;5026568;28;20516;-70
2023/02/26 10:04:15;;;;;;;4.20;2.37;;;;;;;0.94;54.69;95916.13;5024610;28;20473;-70
2023/02/26 10:07:03;;;;;;;2.50;2.20;;;;;;;1.10;54.43;95915.03;5026466;28;20411;-69
2023/02/26 10:09:57;;;;;;;2.70;2.33;;;;;;;1.38;55.07;95914.63;5024103;28;20430;-69
2023/02/26 10:12:26;;;;;;;3.60;2.43;;;;;;;1.64;54.88;95915.03;5027435;28;20459;-71
2023/02/26 10:14:57;;;;;;;3.10;2.03;;;;;;;1.98;55.07;95900.66;5026503;28;20450;-71
2023/02/26 10:17:33;;;;;;;2.60;2.40;;;;;;;1.93;54.89;95910.25;5026218;28;20927;-69
2023/02/26 10:20:10;;;;;;;7.47;2.60;;;;;;;2.46;53.54;95904.06;5027509;28;20410;-69
2023/02/26 10:22:44;;;;;;;8.87;3.40;;;;;;;2.78;52.66;95901.69;5024776;28;20470;-69
2023/02/26 10:25:18;;;;;;;5.93;2.10;;;;;;;1.85;54.42;95913.81;5030535;28;20438;-70
2023/02/26 10:27:49;;;;;;;2.20;1.97;;;;;;;1.89;54.46;95912.03;5029535;28;20456;-69
2023/02/26 10:30:25;;;;;;;4.60;2.70;;;;;;;2.07;55.15;95911.69;5021876;28;20440;-69
2023/02/26 10:33:20;;;;;;;3.20;2.40;;;;;;;1.65;56.33;95908.13;5023830;28;20885;-68
2023/02/26 10:36:01;;;;;;;3.37;2.67;;;;;;;1.40;59.20;95911.13;5030734;28;22272;-68
2023/02/26 10:38:30;;;;;;;2.57;2.37;;;;;;;1.48;59.18;95914.44;5025991;28;20433;-68
2023/02/26 10:41:04;;;;;;;5.53;2.03;;;;;;;1.02;60.71;95928.06;5027026;28;20459;-67
2023/02/26 10:44:02;;;;;;;4.33;2.87;;;;;;;0.33;64.06;95922.94;5026002;28;20429;-69
2023/02/26 10:46:39;;;;;;;6.50;2.30;;;;;;;0.48;63.30;95920.19;5023615;28;20513;-70
2023/02/26 10:49:36;;;;;;;2.90;2.10;;;;;;;0.39;62.19;95915.97;5028673;28;20426;-69
2023/02/26 10:52:12;;;;;;;6.83;3.10;;;;;;;-0.11;65.00;95924.28;5022517;28;20572;-73
2023/02/26 10:54:46;;;;;;;81.20;11.80;;;;;;;0.51;63.96;95917.56;5022952;28;20442;-69
2023/02/26 10:57:25;;;;;;;2.93;2.73;;;;;;;0.28;63.34;95927.28;5031701;28;20469;-69
2023/02/26 10:59:50;;;;;;;3.60;2.90;;;;;;;0.28;63.91;95914.38;5025932;28;20438;-70
2023/02/26 11:02:36;;;;;;;8.47;3.97;;;;;;;0.17;64.17;95928.28;5021623;28;20517;-70
2023/02/26 11:05:04;;;;;;;4.23;2.77;;;;;;;0.62;63.92;95918.28;5026230;28;20179;-69
2023/02/26 11:07:31;;;;;;;2.70;2.50;;;;;;;0.54;61.60;95914.91;5022894;28;20437;-70
2023/02/26 11:09:58;;;;;;;2.87;2.67;;;;;;;0.58;61.02;95921.75;5034159;28;20469;-69
2023/02/26 11:12:24;;;;;;;3.20;3.00;;;;;;;0.99;58.41;95916.91;5023605;28;20988;-69
2023/02/26 11:14:52;;;;;;;3.63;2.60;;;;;;;0.51;60.34;95927.88;5026989;28;20456;-68
2023/02/26 11:17:28;;;;;;;6.40;3.07;;;;;;;0.51;60.51;95920.13;5023174;28;20466;-68
2023/02/26 11:20:01;;;;;;;2.40;2.20;;;;;;;1.02;60.68;95924.66;5028860;28;20433;-66
2023/02/26 11:22:31;;;;;;;2.53;2.30;;;;;;;0.56;61.44;95933.00;5032019;28;21033;-68
2023/02/26 11:24:57;;;;;;;10.93;3.03;;;;;;;0.81;61.61;95929.22;5026716;28;20442;-70
2023/02/26 11:27:29;;;;;;;2.80;2.60;;;;;;;0.42;62.31;95933.16;5030526;28;20509;-69
2023/02/26 11:29:57;;;;;;;5.47;2.70;;;;;;;0.51;62.83;95940.78;5029459;28;20470;-70
2023/02/26 11:32:30;;;;;;;3.13;2.70;;;;;;;0.67;62.32;95941.47;5030785;28;20441;-68
2023/02/26 11:34:55;;;;;;;3.70;3.40;;;;;;;0.37;64.32;95938.38;5040894;28;20433;-69
2023/02/26 11:37:34;;;;;;;4.90;3.33;;;;;;;-0.13;66.75;95954.38;5030431;28;20465;-70
2023/02/26 11:40:13;;;;;;;3.10;2.80;;;;;;;-0.29;68.74;95957.09;5031193;28;20178;-69
2023/02/26 11:42:50;;;;;;;2.90;2.70;;;;;;;-0.55;68.12;95947.00;5029583;28;20446;-69
2023/02/26 11:45:18;;;;;;;3.17;2.87;;;;;;;-0.43;68.94;95949.50;5042027;28;20982;-69
2023/02/26 11:47:46;;;;;;;4.03;3.63;;;;;;;0.37;67.24;95951.28;5025066;28;20439;-69
2023/02/26 11:50:19;;;;;;;7.27;3.80;;;;;;;0.11;66.92;95951.56;5026461;28;21226;-67
2023/02/26 11:52:53;;;;;;;3.87;3.43;;;;;;;-0.14;69.04;95943.22;5028560;28;20520;-67
2023/02/26 11:55:21;;;;;;;3.17;2.80;;;;;;;-0.18;66.35;95962.16;5030263;28;20429;-67